Time;durP1;ratioP1;P1;durP2;ratioP2;P2;SDS_P1;SDS_P2;PMS_P1;PMS_P2;Temp;Humidity;BMP_temperature;BMP_pressure;BME280_temperature;BME280_humidity;BME280_pressure;Samples;Min_cycle;Max_cycle;Signal;HPM_P1;HPM_P2
2022/10/20 00:00:00;;;;;;;3.83;2.78;;;7.60;99.90;;;;;;5045351;28;20649;-51
2022/10/20 00:02:25;;;;;;;8.40;3.40;;;7.60;99.90;;;;;;5043574;28;20062;-60
2022/10/20 00:04:51;;;;;;;4.72;2.63;;;7.60;99.90;;;;;;5046153;28;20399;-50
2022/10/20 00:07:17;;;;;;;9.35;3.08;;;7.60;99.90;;;;;;5045298;28;20176;-61
2022/10/20 00:09:42;;;;;;;8.98;2.70;;;7.60;99.90;;;;;;5045939;28;20098;-58
2022/10/20 00:12:08;;;;;;;10.75;3.30;;;7.60;99.90;;;;;;5027508;28;20037;-47
2022/10/20 00:14:34;;;;;;;17.23;2.85;;;7.50;99.90;;;;;;5027145;28;20053;-60
2022/10/20 00:17:00;;;;;;;3.78;2.80;;;7.50;99.90;;;;;;5046501;28;20045;-47
2022/10/20 00:19:32;;;;;;;9.02;2.80;;;7.50;99.90;;;;;;5044751;28;20406;-45
2022/10/20 00:21:59;;;;;;;11.98;3.38;;;7.50;99.90;;;;;;5034474;28;20150;-55
2022/10/20 00:24:24;;;;;;;8.55;2.67;;;7.50;99.90;;;;;;5044897;28;20049;-51
2022/10/20 00:26:50;;;;;;;8.32;2.60;;;7.40;99.90;;;;;;5027593;28;20170;-72
2022/10/20 00:29:16;;;;;;;6.40;2.78;;;7.40;99.90;;;;;;5010791;28;20049;-55
2022/10/20 00:31:42;;;;;;;6.43;2.20;;;7.40;99.90;;;;;;5047435;28;20199;-50
2022/10/20 00:34:08;;;;;;;5.18;2.60;;;7.50;99.90;;;;;;5046774;28;20053;-48
2022/10/20 00:36:34;;;;;;;5.10;2.40;;;7.50;99.90;;;;;;5050637;28;20056;-57
2022/10/20 00:39:01;;;;;;;11.15;3.00;;;7.50;99.90;;;;;;5051906;28;20033;-55
2022/10/20 00:41:28;;;;;;;4.07;2.17;;;7.50;99.90;;;;;;5049728;28;20049;-60
2022/10/20 00:44:00;;;;;;;6.70;2.45;;;7.50;99.90;;;;;;5032971;28;20136;-48
2022/10/20 00:46:37;;;;;;;3.15;2.20;;;7.50;99.90;;;;;;5051196;28;20043;-49
2022/10/20 00:49:25;;;;;;;8.07;2.35;;;7.50;99.90;;;;;;5050741;28;20614;-51
2022/10/20 00:51:53;;;;;;;3.85;2.50;;;7.50;99.90;;;;;;5039769;28;20048;-50
2022/10/20 00:54:25;;;;;;;4.63;2.33;;;7.50;99.90;;;;;;5032144;28;20045;-58
2022/10/20 00:56:53;;;;;;;6.53;2.60;;;7.50;99.90;;;;;;5050425;28;20060;-68
2022/10/20 00:59:22;;;;;;;5.00;2.55;;;7.50;99.90;;;;;;5051455;28;20183;-49
2022/10/20 01:01:50;;;;;;;5.55;3.15;;;7.40;99.90;;;;;;5050283;28;20040;-61
2022/10/20 01:04:16;;;;;;;7.15;1.85;;;7.40;99.90;;;;;;5031968;28;20055;-54
2022/10/20 01:06:42;;;;;;;4.35;2.40;;;7.40;99.90;;;;;;5051263;28;20122;-81
2022/10/20 01:09:08;;;;;;;4.47;2.17;;;7.40;99.90;;;;;;5048418;28;20116;-83
2022/10/20 01:12:13;;;;;;;6.30;2.60;;;7.40;99.90;;;;;;5050460;28;20422;-48
2022/10/20 01:14:56;;;;;;;7.22;2.10;;;7.30;99.90;;;;;;5010352;28;20056;-55
2022/10/20 01:17:57;;;;;;;9.98;2.83;;;7.40;99.90;;;;;;5049887;28;20045;-46
2022/10/20 01:20:51;;;;;;;7.95;1.98;;;7.30;99.90;;;;;;5032497;28;20061;-84
2022/10/20 01:23:47;;;;;;;5.25;2.20;;;7.30;99.90;;;;;;5047124;28;20056;-83
2022/10/20 01:26:21;;;;;;;4.25;2.50;;;7.30;99.90;;;;;;5048686;28;20495;-86
2022/10/20 01:28:59;;;;;;;4.57;2.00;;;7.30;99.90;;;;;;5048963;28;20049;-86
2022/10/20 01:31:28;;;;;;;10.73;2.35;;;7.40;99.90;;;;;;5047284;28;20445;-61
2022/10/20 01:34:27;;;;;;;7.07;2.35;;;7.40;99.90;;;;;;5039326;28;20465;-49
2022/10/20 01:37:01;;;;;;;2.55;1.88;;;7.40;99.90;;;;;;5048308;28;20110;-87
2022/10/20 01:39:53;;;;;;;2.42;1.90;;;7.40;99.90;;;;;;5047862;28;20047;-84
2022/10/20 01:42:23;;;;;;;8.88;2.60;;;7.40;99.90;;;;;;5020541;28;20045;-82
2022/10/20 01:44:52;;;;;;;12.57;3.37;;;7.40;99.90;;;;;;5046367;28;20044;-80
2022/10/20 01:47:21;;;;;;;6.25;2.50;;;7.30;99.90;;;;;;5037180;28;20445;-84
2022/10/20 01:49:50;;;;;;;6.63;2.60;;;7.30;99.90;;;;;;5039211;28;20099;-55
2022/10/20 01:52:16;;;;;;;7.15;2.28;;;7.30;99.90;;;;;;5029721;28;20068;-48
2022/10/20 01:54:42;;;;;;;12.38;2.55;;;7.30;99.90;;;;;;5047302;28;20048;-46
2022/10/20 01:57:16;;;;;;;5.32;2.50;;;7.30;99.90;;;;;;5046736;28;20036;-83
2022/10/20 02:00:01;;;;;;;3.45;2.03;;;7.20;99.90;;;;;;5048357;28;20506;-55
2022/10/20 02:02:54;;;;;;;3.78;2.20;;;7.20;99.90;;;;;;5047478;28;20128;-52
2022/10/20 02:05:45;;;;;;;4.55;1.92;;;7.20;99.90;;;;;;5030403;28;20060;-49
2022/10/20 02:08:12;;;;;;;6.13;1.92;;;7.20;99.90;;;;;;5030123;28;20110;-54
2022/10/20 02:10:45;;;;;;;8.27;2.40;;;7.20;99.90;;;;;;5047120;28;20071;-52
2022/10/20 02:13:12;;;;;;;7.18;2.70;;;7.20;99.90;;;;;;5030867;28;20569;-51
2022/10/20 02:15:42;;;;;;;3.90;2.33;;;7.30;99.90;;;;;;5029097;28;20116;-51
2022/10/20 02:18:10;;;;;;;3.15;1.95;;;7.20;99.90;;;;;;5029210;28;20095;-57
2022/10/20 02:20:36;;;;;;;7.07;2.53;;;7.30;99.90;;;;;;5047030;28;20090;-48
2022/10/20 02:23:03;;;;;;;5.50;2.13;;;7.30;99.90;;;;;;5047294;28;20056;-66
2022/10/20 02:25:30;;;;;;;4.55;2.40;;;7.30;99.90;;;;;;5047292;28;20045;-61
2022/10/20 02:27:59;;;;;;;4.30;2.50;;;7.30;99.90;;;;;;5046949;28;20128;-59
2022/10/20 02:30:25;;;;;;;4.35;2.40;;;7.20;99.90;;;;;;5047221;28;20259;-50
2022/10/20 02:32:51;;;;;;;6.32;2.30;;;7.20;99.90;;;;;;5028873;28;20080;-64
2022/10/20 02:35:27;;;;;;;4.78;2.13;;;7.20;99.90;;;;;;5029439;28;20084;-61
2022/10/20 02:37:53;;;;;;;16.50;3.55;;;7.20;99.90;;;;;;5047309;28;20056;-62
2022/10/20 02:40:21;;;;;;;7.05;2.40;;;7.20;99.90;;;;;;5046220;28;20494;-49
2022/10/20 02:42:46;;;;;;;5.68;2.33;;;7.20;99.90;;;;;;5047061;28;20418;-55
2022/10/20 02:45:12;;;;;;;2.85;1.80;;;7.20;99.90;;;;;;5046614;28;20502;-48
2022/10/20 02:47:38;;;;;;;4.30;2.35;;;7.20;99.90;;;;;;5047238;28;20132;-51
2022/10/20 02:50:05;;;;;;;3.63;2.15;;;7.20;99.90;;;;;;5027915;28;20228;-60
2022/10/20 02:52:31;;;;;;;4.75;2.40;;;7.10;99.90;;;;;;5046953;28;20110;-56
2022/10/20 02:54:57;;;;;;;9.35;2.40;;;7.10;99.90;;;;;;5046306;28;20049;-65
2022/10/20 02:57:23;;;;;;;8.63;2.50;;;7.10;99.90;;;;;;5046497;28;20048;-54
2022/10/20 02:59:48;;;;;;;11.07;2.38;;;7.00;99.90;;;;;;5028384;28;20517;-64
2022/10/20 03:02:14;;;;;;;7.40;2.38;;;7.00;99.90;;;;;;5046564;28;20072;-54
2022/10/20 03:04:40;;;;;;;7.03;2.65;;;7.00;99.90;;;;;;5028778;28;20041;-48
2022/10/20 03:07:06;;;;;;;5.22;2.25;;;7.00;99.90;;;;;;5046275;28;20043;-58
2022/10/20 03:09:32;;;;;;;5.13;2.30;;;7.00;99.90;;;;;;5028918;28;20497;-61
2022/10/20 03:11:57;;;;;;;5.80;2.50;;;6.90;99.90;;;;;;5027493;28;20053;-69
2022/10/20 03:14:23;;;;;;;5.20;2.38;;;6.90;99.90;;;;;;5045932;28;20037;-63
2022/10/20 03:16:49;;;;;;;5.30;2.60;;;6.80;99.90;;;;;;5045664;28;20450;-53
2022/10/20 03:19:14;;;;;;;4.82;2.50;;;6.80;99.90;;;;;;5046713;28;20416;-48
2022/10/20 03:21:40;;;;;;;9.00;2.50;;;6.80;99.90;;;;;;5046103;28;20035;-54
2022/10/20 03:24:06;;;;;;;3.60;2.25;;;6.80;99.90;;;;;;5028341;28;20479;-53
2022/10/20 03:26:31;;;;;;;8.25;2.67;;;6.90;99.90;;;;;;5032274;28;20442;-50
2022/10/20 03:28:57;;;;;;;10.10;2.30;;;6.90;99.90;;;;;;5045850;28;20073;-66
2022/10/20 03:31:23;;;;;;;5.53;2.22;;;6.90;99.90;;;;;;5028096;28;20067;-62
2022/10/20 03:33:48;;;;;;;5.05;2.40;;;6.90;99.90;;;;;;5045788;28;20115;-50
2022/10/20 03:36:14;;;;;;;3.25;1.83;;;6.80;99.90;;;;;;5046357;28;20049;-62
2022/10/20 03:38:41;;;;;;;3.75;2.20;;;6.80;99.90;;;;;;5046039;28;20041;-50
2022/10/20 03:41:08;;;;;;;5.90;2.00;;;6.80;99.90;;;;;;5027380;28;20410;-76
2022/10/20 03:43:33;;;;;;;5.50;2.30;;;6.80;99.90;;;;;;5028378;28;20503;-52
2022/10/20 03:46:05;;;;;;;3.10;2.05;;;6.80;99.90;;;;;;5027990;28;20080;-50
2022/10/20 03:48:31;;;;;;;8.20;2.30;;;6.80;99.90;;;;;;5030996;28;20088;-51
2022/10/20 03:50:56;;;;;;;3.53;2.25;;;6.70;99.90;;;;;;5048577;28;20455;-58
2022/10/20 03:53:22;;;;;;;5.60;2.65;;;6.70;99.90;;;;;;5048144;28;20395;-48
2022/10/20 03:55:48;;;;;;;4.53;2.80;;;6.70;99.90;;;;;;5047684;28;20084;-55
2022/10/20 03:58:13;;;;;;;7.28;2.67;;;6.70;99.90;;;;;;5015202;28;20075;-70
2022/10/20 04:00:39;;;;;;;5.18;2.50;;;6.70;99.90;;;;;;5049033;28;20072;-67
2022/10/20 04:03:05;;;;;;;6.82;2.85;;;6.60;99.90;;;;;;5031593;28;20044;-60
2022/10/20 04:05:30;;;;;;;4.28;2.47;;;6.60;99.90;;;;;;5048789;28;20386;-51
2022/10/20 04:07:56;;;;;;;11.93;2.63;;;6.60;99.90;;;;;;5049182;28;20041;-63
2022/10/20 04:10:22;;;;;;;12.48;3.17;;;6.70;99.90;;;;;;5049636;28;20045;-92
2022/10/20 04:12:48;;;;;;;3.50;2.50;;;6.70;99.90;;;;;;5036785;28;20576;-53
2022/10/20 04:15:13;;;;;;;5.45;3.65;;;6.70;99.90;;;;;;5053896;28;20045;-54
2022/10/20 04:17:39;;;;;;;6.97;2.65;;;6.70;99.90;;;;;;5054249;28;20048;-89
2022/10/20 04:20:09;;;;;;;8.15;2.80;;;6.80;99.90;;;;;;5053565;28;20137;-94
2022/10/20 04:22:34;;;;;;;7.75;2.60;;;6.70;99.90;;;;;;5053413;28;20045;-55
2022/10/20 04:25:00;;;;;;;4.30;2.55;;;6.80;99.90;;;;;;5053076;28;20044;-48
2022/10/20 04:27:27;;;;;;;6.20;3.35;;;6.80;99.90;;;;;;5054824;28;20048;-93
2022/10/20 04:29:53;;;;;;;5.95;3.45;;;6.80;99.90;;;;;;5054247;28;20045;-56
2022/10/20 04:32:18;;;;;;;10.10;3.22;;;6.80;99.90;;;;;;5054206;28;20406;-47
2022/10/20 04:34:44;;;;;;;7.95;2.97;;;6.80;99.90;;;;;;5036997;28;20056;-53
2022/10/20 04:37:10;;;;;;;4.20;3.60;;;6.80;99.90;;;;;;5054506;28;20041;-51
2022/10/20 04:39:36;;;;;;;5.38;3.50;;;6.80;99.90;;;;;;5053541;28;20067;-56
2022/10/20 04:42:02;;;;;;;8.05;3.10;;;6.80;99.90;;;;;;5054289;28;20045;-91
2022/10/20 04:44:27;;;;;;;5.30;3.75;;;6.80;99.90;;;;;;5036331;28;20037;-90
2022/10/20 04:46:56;;;;;;;11.38;3.10;;;6.80;99.90;;;;;;5039848;28;20229;-60
2022/10/20 04:49:22;;;;;;;7.03;3.65;;;6.80;99.90;;;;;;5053395;28;20041;-46
2022/10/20 04:51:48;;;;;;;8.40;4.00;;;6.70;99.90;;;;;;5019560;28;20045;-62
2022/10/20 04:54:13;;;;;;;4.90;3.28;;;6.80;99.90;;;;;;5054904;28;20040;-84
2022/10/20 04:56:39;;;;;;;8.93;3.97;;;6.70;99.90;;;;;;5052505;28;20112;-47
2022/10/20 04:59:05;;;;;;;5.88;3.05;;;6.70;99.90;;;;;;5053860;28;20045;-60
2022/10/20 05:01:32;;;;;;;4.63;3.65;;;6.70;99.90;;;;;;5053634;28;20099;-60
2022/10/20 05:03:58;;;;;;;8.32;3.95;;;6.70;99.90;;;;;;5034953;28;20085;-91
2022/10/20 05:06:26;;;;;;;6.10;3.70;;;6.70;99.90;;;;;;5053829;28;20056;-48
2022/10/20 05:08:53;;;;;;;7.85;4.43;;;6.70;99.90;;;;;;5051814;28;20037;-50
2022/10/20 05:11:21;;;;;;;6.15;3.50;;;6.70;99.90;;;;;;5052724;28;20041;-54
2022/10/20 05:13:46;;;;;;;7.32;4.70;;;6.70;99.90;;;;;;5052780;28;20442;-47
2022/10/20 05:16:13;;;;;;;8.00;3.97;;;6.60;99.90;;;;;;5052828;28;20048;-60
2022/10/20 05:18:39;;;;;;;7.53;5.28;;;6.60;99.90;;;;;;5034674;28;20054;-77
2022/10/20 05:21:10;;;;;;;5.00;4.07;;;6.60;99.90;;;;;;5033772;28;20419;-93
2022/10/20 05:23:37;;;;;;;6.32;3.72;;;6.60;99.90;;;;;;5034926;28;20045;-96
2022/10/20 05:26:05;;;;;;;6.30;3.95;;;6.60;99.90;;;;;;5052936;28;20037;-52
2022/10/20 05:28:31;;;;;;;6.97;4.32;;;6.60;99.90;;;;;;5053647;28;20103;-92
2022/10/20 05:31:01;;;;;;;9.15;4.45;;;6.60;99.90;;;;;;5052667;28;20064;-84
2022/10/20 05:33:27;;;;;;;5.88;4.57;;;6.60;99.90;;;;;;5035616;28;20487;-50
2022/10/20 05:35:53;;;;;;;10.10;4.35;;;6.50;99.90;;;;;;5052387;28;20048;-96
2022/10/20 05:38:18;;;;;;;4.57;3.97;;;6.60;99.90;;;;;;5033639;28;20067;-79
2022/10/20 05:40:45;;;;;;;6.72;4.03;;;6.60;99.90;;;;;;5049782;28;20064;-49
2022/10/20 05:43:11;;;;;;;8.85;4.97;;;6.60;99.90;;;;;;5052846;28;20040;-56
2022/10/20 05:45:37;;;;;;;9.48;4.82;;;6.50;99.90;;;;;;5050624;28;20055;-79
2022/10/20 05:48:03;;;;;;;6.25;4.28;;;6.50;99.90;;;;;;5031934;28;20045;-70
2022/10/20 05:50:29;;;;;;;5.03;4.20;;;6.50;99.90;;;;;;5032928;28;20052;-69
2022/10/20 05:52:55;;;;;;;6.35;4.22;;;6.60;99.90;;;;;;5052353;28;20053;-57
2022/10/20 05:55:20;;;;;;;8.93;3.97;;;6.50;99.90;;;;;;5050736;28;20041;-54
2022/10/20 05:57:49;;;;;;;8.75;4.78;;;6.60;99.90;;;;;;5051103;28;20051;-49
2022/10/20 06:00:15;;;;;;;5.75;4.30;;;6.60;99.90;;;;;;5032046;28;20041;-54
2022/10/20 06:02:41;;;;;;;15.63;7.05;;;6.60;99.90;;;;;;5031493;28;20159;-57
2022/10/20 06:05:07;;;;;;;9.30;3.95;;;6.60;99.90;;;;;;5050452;28;20092;-71
2022/10/20 06:07:34;;;;;;;6.28;4.00;;;6.60;99.90;;;;;;5050114;28;20037;-59
2022/10/20 06:10:00;;;;;;;4.10;3.35;;;6.60;99.90;;;;;;5031576;28;20127;-49
2022/10/20 06:12:26;;;;;;;8.80;5.32;;;6.60;99.90;;;;;;5031628;28;20136;-85
2022/10/20 06:14:52;;;;;;;6.07;5.00;;;6.60;99.90;;;;;;5050770;28;20048;-87
2022/10/20 06:17:17;;;;;;;14.75;4.82;;;6.60;99.90;;;;;;5050582;28;20083;-56
2022/10/20 06:19:43;;;;;;;6.72;4.20;;;6.60;99.90;;;;;;5014920;28;20102;-58
2022/10/20 06:22:08;;;;;;;10.98;4.95;;;6.60;99.90;;;;;;5047987;28;20064;-60
2022/10/20 06:24:34;;;;;;;8.48;4.00;;;6.60;99.90;;;;;;5032719;28;20040;-52
2022/10/20 06:27:00;;;;;;;5.32;4.03;;;6.60;99.90;;;;;;5051247;28;20483;-93
2022/10/20 06:29:25;;;;;;;12.15;4.72;;;6.70;99.90;;;;;;5050841;28;20506;-55
2022/10/20 06:31:53;;;;;;;8.15;4.10;;;6.70;99.90;;;;;;5049010;28;20479;-60
2022/10/20 06:34:22;;;;;;;10.57;4.07;;;6.70;99.90;;;;;;5029163;28;20064;-84
2022/10/20 06:36:49;;;;;;;6.28;4.30;;;6.70;99.90;;;;;;5030071;28;20045;-53
2022/10/20 06:39:17;;;;;;;7.05;3.92;;;6.70;99.90;;;;;;5029997;28;20125;-54
2022/10/20 06:41:49;;;;;;;5.38;3.45;;;6.70;99.90;;;;;;5029511;28;20042;-49
2022/10/20 06:44:15;;;;;;;8.98;4.70;;;6.70;99.90;;;;;;5028330;28;20046;-55
2022/10/20 06:46:41;;;;;;;4.97;3.60;;;6.80;99.90;;;;;;5026824;28;20045;-59
2022/10/20 06:49:06;;;;;;;7.47;4.03;;;6.80;99.90;;;;;;5028508;28;20041;-48
2022/10/20 06:51:33;;;;;;;6.80;4.25;;;6.90;99.90;;;;;;5027463;28;20072;-52
2022/10/20 06:54:00;;;;;;;8.63;4.28;;;6.90;99.90;;;;;;5026590;28;20083;-53
2022/10/20 06:56:28;;;;;;;3.70;3.40;;;6.90;99.90;;;;;;5027915;28;20030;-65
2022/10/20 06:58:55;;;;;;;7.97;4.63;;;7.00;99.90;;;;;;5028528;28;20111;-50
2022/10/20 07:01:32;;;;;;;11.90;3.45;;;7.00;99.90;;;;;;5026427;28;20426;-53
2022/10/20 07:04:04;;;;;;;9.75;3.97;;;7.00;99.90;;;;;;5026578;28;20045;-59
2022/10/20 07:06:33;;;;;;;8.25;3.22;;;7.20;99.90;;;;;;5028906;28;20559;-47
2022/10/20 07:08:59;;;;;;;11.60;3.47;;;7.10;99.90;;;;;;5027823;28;20387;-55
2022/10/20 07:11:30;;;;;;;4.22;3.53;;;7.10;99.90;;;;;;5027666;28;20037;-53
2022/10/20 07:14:00;;;;;;;4.80;3.35;;;7.10;99.90;;;;;;5024035;28;20048;-57
2022/10/20 07:16:28;;;;;;;5.22;3.60;;;7.20;99.90;;;;;;5027060;28;20128;-52
2022/10/20 07:18:56;;;;;;;4.95;3.03;;;7.20;99.90;;;;;;5027391;28;20499;-54
2022/10/20 07:21:25;;;;;;;8.15;3.58;;;7.30;99.90;;;;;;5024739;28;20048;-55
2022/10/20 07:23:52;;;;;;;4.03;2.93;;;7.30;99.90;;;;;;5027324;28;20509;-54
2022/10/20 07:26:24;;;;;;;9.40;3.72;;;7.30;99.90;;;;;;5027016;28;20034;-56
2022/10/20 07:28:53;;;;;;;5.85;3.30;;;7.40;99.90;;;;;;5021767;28;20518;-54
2022/10/20 07:31:25;;;;;;;6.93;4.30;;;7.40;99.90;;;;;;5025124;28;20049;-50
2022/10/20 07:33:51;;;;;;;5.53;3.15;;;7.40;99.90;;;;;;5027895;28;20057;-55
2022/10/20 07:36:22;;;;;;;6.05;3.40;;;7.40;99.90;;;;;;5043206;28;20053;-58
2022/10/20 07:38:51;;;;;;;3.55;2.50;;;7.40;99.90;;;;;;5040774;28;20386;-55
2022/10/20 07:41:17;;;;;;;3.60;1.88;;;7.50;99.90;;;;;;5026560;28;20094;-60
2022/10/20 07:43:43;;;;;;;5.68;3.72;;;7.50;99.90;;;;;;5042775;28;20037;-53
2022/10/20 07:46:11;;;;;;;5.68;3.70;;;7.50;99.90;;;;;;5043411;28;20065;-69
2022/10/20 07:48:37;;;;;;;6.28;3.72;;;7.60;99.90;;;;;;5044187;28;20051;-58
2022/10/20 07:51:33;;;;;;;7.20;3.50;;;7.60;99.90;;;;;;5015880;28;20562;-61
2022/10/20 07:54:05;;;;;;;4.53;2.83;;;7.60;99.90;;;;;;5032557;28;20053;-53
2022/10/20 07:56:34;;;;;;;7.13;3.47;;;7.60;99.90;;;;;;5045192;28;20049;-57
2022/10/20 07:59:00;;;;;;;3.75;3.35;;;7.60;99.90;;;;;;5045262;28;20628;-49
2022/10/20 08:01:26;;;;;;;6.53;3.47;;;7.60;99.90;;;;;;5045737;28;20033;-57
2022/10/20 08:03:52;;;;;;;6.32;3.83;;;7.60;99.90;;;;;;5045967;28;20081;-54
2022/10/20 08:06:18;;;;;;;7.55;3.45;;;7.60;99.90;;;;;;5043243;28;20064;-51
2022/10/20 08:08:43;;;;;;;9.43;3.65;;;7.60;99.90;;;;;;5045340;28;20045;-56
2022/10/20 08:11:10;;;;;;;6.63;3.15;;;7.60;99.90;;;;;;5044661;28;20120;-58
2022/10/20 08:13:37;;;;;;;7.07;3.47;;;7.60;99.90;;;;;;5027167;28;20128;-58
2022/10/20 08:16:02;;;;;;;7.68;3.63;;;7.60;99.90;;;;;;5043042;28;20139;-87
2022/10/20 08:18:28;;;;;;;4.53;3.25;;;7.70;99.90;;;;;;5045490;28;20534;-86
2022/10/20 08:21:14;;;;;;;8.35;3.53;;;7.70;99.90;;;;;;5047667;28;20580;-55
2022/10/20 08:23:41;;;;;;;5.97;3.72;;;7.80;99.90;;;;;;5047759;28;20044;-53
2022/10/20 08:26:08;;;;;;;8.75;3.80;;;7.80;99.90;;;;;;5046514;28;20071;-85
2022/10/20 08:28:34;;;;;;;4.45;3.50;;;7.90;99.90;;;;;;5029146;28;20041;-83
2022/10/20 08:31:05;;;;;;;6.20;3.55;;;7.90;99.90;;;;;;5028279;28;20076;-60
2022/10/20 08:33:31;;;;;;;8.20;3.30;;;7.90;99.90;;;;;;5046724;28;20045;-52
2022/10/20 08:36:08;;;;;;;7.30;3.60;;;8.00;99.90;;;;;;5045790;28;20415;-50
2022/10/20 08:38:37;;;;;;;5.32;2.83;;;8.00;99.90;;;;;;5045539;28;20041;-52
2022/10/20 08:41:05;;;;;;;4.80;2.78;;;8.00;99.90;;;;;;5044892;28;20056;-57
2022/10/20 08:43:35;;;;;;;10.55;3.50;;;8.10;99.90;;;;;;5045396;28;20041;-53
2022/10/20 08:46:01;;;;;;;12.00;3.92;;;8.10;99.90;;;;;;5027571;28;20095;-62
2022/10/20 08:48:31;;;;;;;8.88;3.28;;;8.20;99.90;;;;;;5013791;28;20091;-64
2022/10/20 08:50:57;;;;;;;;;;;8.30;99.90;;;;;;5028356;28;20410;-59
2022/10/20 08:53:25;;;;;;;5.07;3.08;;;8.30;99.90;;;;;;5044142;28;20028;-55
2022/10/20 08:55:51;;;;;;;6.32;3.80;;;8.40;99.90;;;;;;5047141;28;20111;-47
2022/10/20 08:58:22;;;;;;;4.53;3.33;;;8.50;99.90;;;;;;5049376;28;20080;-52
2022/10/20 09:00:54;;;;;;;2.75;2.50;;;8.50;99.90;;;;;;5048775;28;20375;-53
2022/10/20 09:03:23;;;;;;;10.73;3.22;;;8.60;99.90;;;;;;5049247;28;20037;-53
2022/10/20 09:06:05;;;;;;;7.53;3.15;;;8.60;99.90;;;;;;5049078;28;20048;-62
2022/10/20 09:08:36;;;;;;;6.45;3.03;;;8.70;99.90;;;;;;5048122;28;20055;-53
2022/10/20 09:11:03;;;;;;;10.50;3.20;;;8.80;99.90;;;;;;5029485;28;20037;-52
2022/10/20 09:13:31;;;;;;;5.00;3.10;;;8.90;99.90;;;;;;5047885;28;20155;-48
2022/10/20 09:16:12;;;;;;;9.18;3.50;;;8.90;99.90;;;;;;5043966;28;20045;-54
2022/10/20 09:18:38;;;;;;;4.00;2.47;;;9.00;99.90;;;;;;5044821;28;20045;-50
2022/10/20 09:21:15;;;;;;;4.47;3.20;;;9.10;99.90;;;;;;5028707;28;20041;-56
2022/10/20 09:23:46;;;;;;;4.50;3.22;;;9.20;99.90;;;;;;5047551;28;20147;-57
2022/10/20 09:26:20;;;;;;;3.08;2.33;;;9.40;99.90;;;;;;5048317;28;20044;-57
2022/10/20 09:29:00;;;;;;;4.80;2.72;;;9.60;99.90;;;;;;5047119;28;20051;-58
2022/10/20 09:31:40;;;;;;;5.78;2.83;;;9.70;99.90;;;;;;5029460;28;20399;-51
2022/10/20 09:34:27;;;;;;;4.75;2.42;;;9.80;99.90;;;;;;5046147;28;20388;-54
2022/10/20 09:37:05;;;;;;;7.25;3.25;;;9.80;99.90;;;;;;5032090;28;20069;-54
2022/10/20 09:40:02;;;;;;;9.07;3.45;;;9.90;99.90;;;;;;5029160;28;20040;-48
2022/10/20 09:42:39;;;;;;;4.28;2.88;;;10.00;99.90;;;;;;5008019;28;20053;-53
2022/10/20 09:45:25;;;;;;;3.47;3.17;;;10.00;99.90;;;;;;5031127;28;20095;-63
2022/10/20 09:47:55;;;;;;;4.65;2.90;;;10.20;99.90;;;;;;5050151;28;20045;-75
2022/10/20 09:50:32;;;;;;;5.82;3.00;;;10.20;99.90;;;;;;5045463;28;20106;-61
2022/10/20 09:53:01;;;;;;;5.43;3.38;;;10.20;99.90;;;;;;5032452;28;20545;-65
2022/10/20 09:55:36;;;;;;;4.40;3.88;;;10.20;99.90;;;;;;5047297;28;20606;-58
2022/10/20 09:58:04;;;;;;;3.40;3.10;;;10.20;99.90;;;;;;5031471;28;20079;-54
2022/10/20 10:00:35;;;;;;;5.95;3.42;;;10.20;99.90;;;;;;5047718;28;20045;-55
2022/10/20 10:03:20;;;;;;;13.35;2.72;;;10.20;99.90;;;;;;5028358;28;20045;-61
2022/10/20 10:05:49;;;;;;;3.10;2.90;;;10.20;99.90;;;;;;5049202;28;20044;-64
2022/10/20 10:08:17;;;;;;;5.83;3.40;;;10.20;99.90;;;;;;5048127;28;20045;-53
2022/10/20 10:10:55;;;;;;;4.05;2.72;;;10.30;99.90;;;;;;5049223;28;20037;-53
2022/10/20 10:13:26;;;;;;;6.97;3.25;;;10.30;99.90;;;;;;5048465;28;20060;-59
2022/10/20 10:16:02;;;;;;;5.88;2.47;;;10.40;99.90;;;;;;5048395;28;20087;-57
2022/10/20 10:18:28;;;;;;;6.88;3.63;;;10.50;99.90;;;;;;5046464;28;20039;-60
2022/10/20 10:21:06;;;;;;;10.93;3.50;;;10.60;99.90;;;;;;5039261;28;20116;-61
2022/10/20 10:23:35;;;;;;;3.90;2.72;;;10.60;99.90;;;;;;5047199;28;20129;-74
2022/10/20 10:26:02;;;;;;;9.43;3.58;;;10.70;99.90;;;;;;5041907;28;20557;-65
2022/10/20 10:28:34;;;;;;;6.57;3.33;;;10.70;99.90;;;;;;5048272;28;20095;-53
2022/10/20 10:31:06;;;;;;;7.15;3.58;;;10.80;99.90;;;;;;5047126;28;20076;-59
2022/10/20 10:33:32;;;;;;;5.03;3.42;;;10.80;99.90;;;;;;5046098;28;20052;-52
2022/10/20 10:36:03;;;;;;;7.40;3.42;;;10.80;99.90;;;;;;5045432;28;20330;-54
2022/10/20 10:38:29;;;;;;;4.32;3.30;;;10.90;99.90;;;;;;5048436;28;20044;-57
2022/10/20 10:41:22;;;;;;;5.60;3.78;;;11.00;99.90;;;;;;5043201;28;20065;-53
2022/10/20 10:43:48;;;;;;;2.88;2.65;;;11.10;99.90;;;;;;5043688;28;20037;-53
2022/10/20 10:46:25;;;;;;;5.88;4.13;;;11.10;99.90;;;;;;5027877;28;20048;-55
2022/10/20 10:49:28;;;;;;;4.72;3.83;;;11.20;99.90;;;;;;5046633;28;20522;-67
2022/10/20 10:52:18;;;;;;;7.50;3.50;;;11.20;99.90;;;;;;5049358;28;20211;-81
2022/10/20 10:55:07;;;;;;;4.25;2.60;;;11.30;99.90;;;;;;5030549;28;20519;-81
2022/10/20 10:57:41;;;;;;;4.60;3.45;;;11.30;99.90;;;;;;5048492;28;20159;-83
2022/10/20 11:00:16;;;;;;;4.78;3.67;;;11.40;99.90;;;;;;5048709;28;20029;-68
2022/10/20 11:03:14;;;;;;;7.70;4.45;;;11.40;99.90;;;;;;5048545;28;20037;-53
2022/10/20 11:06:06;;;;;;;6.82;2.97;;;11.40;99.90;;;;;;5031340;28;20041;-54
2022/10/20 11:08:45;;;;;;;9.30;3.45;;;11.40;99.90;;;;;;5028995;28;20073;-57
2022/10/20 11:11:39;;;;;;;3.92;3.53;;;11.40;99.90;;;;;;5039979;28;20059;-57
2022/10/20 11:14:23;;;;;;;8.50;3.22;;;11.50;99.90;;;;;;5028871;28;20048;-75
2022/10/20 11:17:06;;;;;;;11.23;4.10;;;11.50;99.90;;;;;;5045862;28;20047;-48
2022/10/20 11:19:54;;;;;;;6.43;3.72;;;11.50;99.90;;;;;;5045257;28;20036;-69
2022/10/20 11:22:39;;;;;;;5.78;3.30;;;11.60;99.90;;;;;;5028889;28;20545;-69
2022/10/20 11:25:27;;;;;;;6.60;3.97;;;11.70;99.90;;;;;;5046845;28;20495;-52
2022/10/20 11:27:56;;;;;;;11.88;4.10;;;11.80;99.90;;;;;;5046579;28;20767;-54
2022/10/20 11:30:22;;;;;;;8.88;4.18;;;11.90;99.90;;;;;;5046266;28;20095;-64
2022/10/20 11:33:07;;;;;;;4.50;4.10;;;12.00;99.90;;;;;;5045248;28;20044;-53
2022/10/20 11:35:46;;;;;;;10.10;3.83;;;12.10;99.90;;;;;;5046336;28;20111;-58
2022/10/20 11:38:33;;;;;;;10.43;4.43;;;12.10;99.90;;;;;;5044644;28;20033;-64
2022/10/20 11:41:30;;;;;;;7.15;4.30;;;12.20;99.90;;;;;;5027569;28;20167;-59
2022/10/20 11:44:11;;;;;;;7.68;4.47;;;12.20;99.90;;;;;;5041168;28;20041;-55
2022/10/20 11:46:42;;;;;;;;;;;12.30;99.90;;;;;;5046713;28;20124;-55
2022/10/20 11:49:11;;;;;;;4.15;3.70;;;12.40;99.90;;;;;;5048051;28;19964;-47
2022/10/20 11:51:45;;;;;;;7.65;3.95;;;12.40;99.90;;;;;;5045481;28;20036;-50
2022/10/20 11:54:13;;;;;;;4.43;4.00;;;12.50;99.90;;;;;;5027186;28;20434;-50
2022/10/20 11:57:07;;;;;;;11.20;4.30;;;12.50;99.90;;;;;;5045458;28;20435;-53
2022/10/20 11:59:50;;;;;;;4.80;4.03;;;12.50;99.90;;;;;;5027133;28;20401;-57
2022/10/20 12:02:50;;;;;;;7.75;4.43;;;12.50;99.90;;;;;;5006333;28;20495;-58
2022/10/20 12:05:18;;;;;;;5.90;4.60;;;12.50;99.90;;;;;;5040951;28;20439;-63
2022/10/20 12:08:21;;;;;;;5.82;4.35;;;12.60;99.90;;;;;;5045256;28;20395;-55
2022/10/20 12:11:04;;;;;;;8.45;4.50;;;12.60;99.90;;;;;;5043418;28;20077;-57
2022/10/20 12:13:35;;;;;;;16.77;6.20;;;12.70;99.90;;;;;;5026160;28;20055;-59
2022/10/20 12:16:01;;;;;;;5.95;4.40;;;12.70;99.90;;;;;;5045157;28;20039;-89
2022/10/20 12:18:31;;;;;;;8.10;4.00;;;12.70;99.90;;;;;;5027046;28;20037;-52
2022/10/20 12:21:05;;;;;;;5.47;3.60;;;12.70;99.90;;;;;;5047867;28;20037;-86
2022/10/20 12:23:44;;;;;;;5.60;4.55;;;12.70;99.90;;;;;;5043450;28;20434;-56
2022/10/20 12:26:38;;;;;;;9.13;4.95;;;12.70;99.90;;;;;;5045089;28;20045;-59
2022/10/20 12:29:29;;;;;;;8.63;4.68;;;12.70;99.90;;;;;;5047098;28;20045;-55
2022/10/20 12:32:20;;;;;;;6.15;4.68;;;12.70;99.90;;;;;;5019846;28;20080;-51
2022/10/20 12:34:57;;;;;;;9.15;5.10;;;12.70;99.90;;;;;;5050585;28;20140;-61
2022/10/20 12:37:22;;;;;;;6.80;4.28;;;12.70;99.90;;;;;;5029459;28;20466;-60
2022/10/20 12:39:49;;;;;;;6.28;5.00;;;12.70;99.90;;;;;;5050295;28;20041;-50
2022/10/20 12:42:39;;;;;;;6.93;4.72;;;12.70;99.90;;;;;;5049532;28;20049;-65
2022/10/20 12:45:22;;;;;;;7.85;5.68;;;12.70;99.90;;;;;;5048218;28;20041;-60
2022/10/20 12:47:52;;;;;;;6.07;4.32;;;12.70;99.90;;;;;;5032247;28;20135;-54
2022/10/20 12:50:30;;;;;;;12.02;4.50;;;12.70;99.90;;;;;;5048950;28;20048;-52
2022/10/20 12:53:08;;;;;;;10.80;5.45;;;12.60;99.90;;;;;;5051345;28;20130;-59
2022/10/20 12:55:37;;;;;;;13.82;5.20;;;12.60;99.90;;;;;;5045499;28;20411;-75
2022/10/20 12:58:29;;;;;;;9.80;4.75;;;12.50;99.90;;;;;;5015938;28;20094;-50
2022/10/20 13:00:57;;;;;;;6.50;4.90;;;12.50;99.90;;;;;;5031684;28;20562;-49
2022/10/20 13:03:45;;;;;;;5.63;4.70;;;12.40;99.90;;;;;;5045799;28;20086;-57
2022/10/20 13:06:25;;;;;;;7.25;4.90;;;12.40;99.90;;;;;;5050504;28;20504;-62
2022/10/20 13:09:03;;;;;;;10.73;5.33;;;12.40;99.90;;;;;;5026005;28;20053;-51
2022/10/20 13:11:36;;;;;;;10.45;5.47;;;12.40;99.90;;;;;;5032335;28;20357;-54
2022/10/20 13:14:11;;;;;;;7.15;5.15;;;12.30;99.90;;;;;;5049647;28;20041;-56